createdAt,value
2023-06-17T00:02:21.788Z,99.90
2023-06-17T00:04:49.629Z,99.90
2023-06-17T00:07:17.413Z,99.90
2023-06-17T00:09:45.673Z,99.90
2023-06-17T00:12:13.736Z,99.90
2023-06-17T00:14:42.931Z,99.90
2023-06-17T00:17:10.622Z,99.90
2023-06-17T00:19:38.889Z,99.90
2023-06-17T00:22:07.266Z,99.90
2023-06-17T00:24:35.143Z,99.90
2023-06-17T00:27:03.116Z,99.90
2023-06-17T00:29:31.134Z,99.90
2023-06-17T00:31:58.920Z,99.90
2023-06-17T00:34:26.603Z,99.90
2023-06-17T00:36:54.287Z,99.90
2023-06-17T00:39:22.389Z,99.90
2023-06-17T00:41:50.295Z,99.90
2023-06-17T00:44:18.022Z,99.90
2023-06-17T00:46:51.497Z,99.90
2023-06-17T00:49:20.393Z,99.90
2023-06-17T00:51:59.463Z,99.90
2023-06-17T00:54:42.437Z,99.90
2023-06-17T00:57:14.721Z,99.90
2023-06-17T00:59:46.420Z,99.90
2023-06-17T01:02:14.868Z,99.90
2023-06-17T01:04:47.724Z,99.90
2023-06-17T01:07:41.401Z,99.90
2023-06-17T01:10:19.456Z,99.90
2023-06-17T01:12:49.549Z,99.90
2023-06-17T01:15:18.764Z,99.90
2023-06-17T01:17:48.020Z,99.90
2023-06-17T01:20:16.860Z,99.90
2023-06-17T01:22:47.223Z,99.90
2023-06-17T01:25:15.256Z,99.90
2023-06-17T01:27:43.026Z,99.90
2023-06-17T01:30:11.588Z,99.90
2023-06-17T01:32:40.007Z,99.90
2023-06-17T01:35:16.144Z,99.90
2023-06-17T01:37:56.613Z,99.90
2023-06-17T01:40:26.012Z,99.90
2023-06-17T01:42:55.037Z,99.90
2023-06-17T01:45:24.643Z,99.90
2023-06-17T01:47:52.583Z,99.90
2023-06-17T01:50:21.192Z,99.90
2023-06-17T01:52:49.278Z,99.90
2023-06-17T01:55:18.640Z,99.90
2023-06-17T01:57:46.788Z,99.90
2023-06-17T02:00:15.181Z,99.90
2023-06-17T02:02:52.735Z,99.90
2023-06-17T02:05:21.649Z,99.90
2023-06-17T02:07:49.591Z,99.90
2023-06-17T02:10:17.887Z,99.90
2023-06-17T02:12:45.892Z,99.90
2023-06-17T02:15:14.709Z,99.90
2023-06-17T02:17:44.451Z,99.90
2023-06-17T02:20:12.946Z,99.90
2023-06-17T02:22:40.952Z,99.90
2023-06-17T02:25:08.989Z,99.90
2023-06-17T02:27:37.619Z,99.90
2023-06-17T02:30:06.056Z,99.90
2023-06-17T02:32:34.181Z,99.90
2023-06-17T02:35:01.992Z,99.90
2023-06-17T02:37:30.013Z,99.90
2023-06-17T02:39:57.937Z,99.90
2023-06-17T02:42:25.900Z,99.90
2023-06-17T02:44:53.730Z,99.90
2023-06-17T02:47:21.724Z,99.90
2023-06-17T02:49:49.488Z,99.90
2023-06-17T02:52:17.262Z,99.90
2023-06-17T02:54:45.335Z,99.90
2023-06-17T02:57:18.871Z,99.90
2023-06-17T02:59:47.003Z,99.90
2023-06-17T03:02:14.900Z,99.90
2023-06-17T03:04:42.896Z,99.90
2023-06-17T03:07:16.929Z,99.90
2023-06-17T03:09:45.664Z,99.90
2023-06-17T03:12:13.448Z,99.90
2023-06-17T03:14:41.832Z,99.90
2023-06-17T03:17:14.936Z,99.90
2023-06-17T03:19:43.756Z,99.90
2023-06-17T03:22:11.592Z,99.90
2023-06-17T03:24:43.471Z,99.90
2023-06-17T03:27:12.613Z,99.90
2023-06-17T03:29:41.240Z,99.90
2023-06-17T03:32:09.965Z,99.90
2023-06-17T03:34:37.958Z,99.90
2023-06-17T03:37:10.234Z,99.90
2023-06-17T03:39:38.128Z,99.90
2023-06-17T03:42:06.420Z,99.90
2023-06-17T03:44:34.209Z,99.90
2023-06-17T03:47:02.173Z,99.90
2023-06-17T03:49:30.088Z,99.90
2023-06-17T03:51:57.998Z,99.90
2023-06-17T03:54:26.170Z,99.90
2023-06-17T03:56:54.092Z,99.90
2023-06-17T03:59:21.829Z,99.90
2023-06-17T04:01:49.629Z,99.90
2023-06-17T04:04:17.794Z,99.90
2023-06-17T04:06:46.957Z,99.90
2023-06-17T04:09:15.552Z,99.90
2023-06-17T04:11:43.618Z,99.90
2023-06-17T04:14:12.717Z,99.90
2023-06-17T04:16:43.047Z,99.90
2023-06-17T04:19:15.287Z,99.90
2023-06-17T04:21:43.132Z,99.90
2023-06-17T04:24:11.392Z,99.90
2023-06-17T04:26:39.307Z,99.90
2023-06-17T04:29:07.152Z,99.90
2023-06-17T04:31:36.971Z,99.90
2023-06-17T04:34:06.769Z,99.90
2023-06-17T04:36:35.208Z,99.90
2023-06-17T04:39:03.125Z,99.90
2023-06-17T04:41:34.000Z,99.90
2023-06-17T04:44:02.504Z,99.90
2023-06-17T04:46:31.425Z,99.90
2023-06-17T04:48:59.856Z,99.90
2023-06-17T04:51:27.844Z,99.90
2023-06-17T04:53:55.605Z,99.90
2023-06-17T04:56:28.182Z,99.90
2023-06-17T04:58:56.310Z,99.90
2023-06-17T05:01:24.095Z,99.90
2023-06-17T05:03:52.173Z,99.90
2023-06-17T05:06:20.349Z,99.90
2023-06-17T05:08:48.418Z,99.90
2023-06-17T05:11:16.540Z,99.90
2023-06-17T05:13:46.201Z,99.90
2023-06-17T05:16:14.039Z,99.90
2023-06-17T05:18:43.031Z,99.90
2023-06-17T05:21:11.761Z,99.90
2023-06-17T05:23:39.716Z,99.90
2023-06-17T05:26:09.039Z,99.90
2023-06-17T05:28:37.473Z,99.90
2023-06-17T05:31:05.512Z,99.90
2023-06-17T05:33:33.475Z,99.90
2023-06-17T05:36:01.899Z,99.90
2023-06-17T05:38:31.879Z,99.90
2023-06-17T05:40:59.772Z,99.90
2023-06-17T05:43:29.595Z,99.90
2023-06-17T05:45:58.823Z,99.90
2023-06-17T05:48:26.902Z,99.90
2023-06-17T05:50:55.455Z,99.90
2023-06-17T05:53:23.219Z,99.90
2023-06-17T05:55:51.945Z,99.90
2023-06-17T05:58:20.093Z,99.90
2023-06-17T06:01:00.069Z,99.90
2023-06-17T06:03:27.975Z,99.90
2023-06-17T06:05:55.811Z,99.90
2023-06-17T06:08:23.578Z,99.90
2023-06-17T06:10:51.513Z,99.90
2023-06-17T06:13:19.420Z,99.90
2023-06-17T06:15:47.790Z,99.90
2023-06-17T06:18:15.869Z,99.90
2023-06-17T06:20:43.820Z,99.90
2023-06-17T06:23:11.677Z,99.90
2023-06-17T06:25:39.572Z,99.90
2023-06-17T06:28:08.361Z,99.90
2023-06-17T06:30:36.262Z,99.90
2023-06-17T06:33:04.216Z,99.90
2023-06-17T06:35:32.912Z,99.90
2023-06-17T06:38:01.715Z,99.90
2023-06-17T06:40:29.623Z,99.90
2023-06-17T06:42:57.426Z,99.90
2023-06-17T06:45:27.361Z,99.90
2023-06-17T06:47:56.386Z,99.90
2023-06-17T06:50:24.402Z,99.90
2023-06-17T06:52:54.209Z,99.90
2023-06-17T06:55:23.118Z,99.90
2023-06-17T06:57:53.596Z,99.90
2023-06-17T07:00:21.816Z,99.90
2023-06-17T07:02:51.179Z,99.90
2023-06-17T07:05:23.533Z,99.90
2023-06-17T07:07:55.720Z,99.90
2023-06-17T07:10:24.019Z,99.90
2023-06-17T07:12:51.926Z,99.90
2023-06-17T07:15:20.938Z,99.90
2023-06-17T07:17:50.979Z,99.90
2023-06-17T07:20:19.081Z,99.90
2023-06-17T07:22:48.134Z,99.90
2023-06-17T07:25:18.124Z,99.90
2023-06-17T07:27:46.676Z,99.90
2023-06-17T07:30:16.152Z,99.90
2023-06-17T07:32:43.991Z,99.90
2023-06-17T07:35:11.863Z,99.90
2023-06-17T07:37:39.753Z,99.90
2023-06-17T07:40:14.134Z,99.90
2023-06-17T07:42:45.171Z,99.90
2023-06-17T07:45:13.318Z,99.90
2023-06-17T07:47:41.149Z,99.90
2023-06-17T07:50:10.001Z,99.90
2023-06-17T07:52:38.166Z,99.90
2023-06-17T07:55:08.620Z,99.90
2023-06-17T07:57:36.736Z,99.90
2023-06-17T08:00:11.450Z,99.90
2023-06-17T08:02:44.877Z,99.90
2023-06-17T08:05:12.900Z,99.90
2023-06-17T08:07:40.746Z,99.90
2023-06-17T08:10:10.295Z,99.90
2023-06-17T08:12:38.629Z,99.90
2023-06-17T08:15:07.183Z,99.90
2023-06-17T08:17:35.078Z,99.90
2023-06-17T08:20:05.296Z,99.90
2023-06-17T08:22:33.161Z,99.90
2023-06-17T08:25:00.939Z,97.80
2023-06-17T08:27:31.889Z,98.80
2023-06-17T08:30:00.322Z,99.40
2023-06-17T08:32:28.225Z,99.90
2023-06-17T08:34:56.185Z,98.40
2023-06-17T08:37:23.985Z,99.00
2023-06-17T08:39:51.723Z,97.20
2023-06-17T08:42:19.533Z,96.90
2023-06-17T08:44:47.959Z,98.10
2023-06-17T08:47:17.212Z,96.20
2023-06-17T08:49:45.773Z,96.60
2023-06-17T08:52:17.444Z,97.20
2023-06-17T08:54:46.537Z,97.10
2023-06-17T08:57:14.695Z,96.60
2023-06-17T08:59:42.623Z,94.80
2023-06-17T09:02:12.101Z,92.80
2023-06-17T09:04:41.266Z,93.20
2023-06-17T09:07:10.857Z,92.90
2023-06-17T09:09:38.990Z,91.90
2023-06-17T09:12:09.659Z,91.50
2023-06-17T09:14:38.122Z,92.40
2023-06-17T09:17:05.980Z,92.90
2023-06-17T09:19:33.979Z,93.10
2023-06-17T09:22:08.049Z,93.90
2023-06-17T09:24:36.297Z,94.80
2023-06-17T09:27:04.296Z,93.40
2023-06-17T09:29:36.020Z,94.20
2023-06-17T09:32:05.930Z,93.30
2023-06-17T09:34:33.910Z,92.60
2023-06-17T09:37:03.018Z,92.90
2023-06-17T09:39:33.082Z,93.60
2023-06-17T09:42:11.957Z,93.40
2023-06-17T09:44:41.163Z,92.50
2023-06-17T09:47:09.832Z,93.00
2023-06-17T09:49:38.394Z,93.20
2023-06-17T09:52:09.714Z,93.40
2023-06-17T09:54:38.740Z,92.20
2023-06-17T09:57:11.197Z,92.90
2023-06-17T09:59:39.237Z,92.10
2023-06-17T10:02:08.137Z,91.30
2023-06-17T10:04:38.957Z,90.90
2023-06-17T10:07:08.245Z,92.30
2023-06-17T10:09:36.506Z,93.00
2023-06-17T10:12:06.146Z,91.10
2023-06-17T10:14:35.101Z,91.30
2023-06-17T10:17:06.837Z,91.60
2023-06-17T10:19:36.684Z,89.50
2023-06-17T10:22:09.435Z,91.10
2023-06-17T10:24:37.740Z,90.30
2023-06-17T10:27:07.929Z,89.90
2023-06-17T10:29:35.905Z,89.60
2023-06-17T10:32:27.011Z,88.40
2023-06-17T10:35:07.079Z,88.70
2023-06-17T10:37:42.889Z,84.00
2023-06-17T10:40:27.801Z,89.40
2023-06-17T10:43:04.950Z,87.70
2023-06-17T10:45:34.254Z,89.30
2023-06-17T10:48:37.852Z,82.30
2023-06-17T10:51:11.320Z,82.10
2023-06-17T10:53:47.010Z,79.50
2023-06-17T10:56:15.232Z,82.40
2023-06-17T10:58:48.615Z,81.00
2023-06-17T11:01:16.824Z,82.30
2023-06-17T11:03:46.082Z,77.50
2023-06-17T11:06:14.825Z,78.70
2023-06-17T11:08:42.590Z,79.20
2023-06-17T11:11:15.636Z,78.40
2023-06-17T11:13:45.626Z,77.50
2023-06-17T11:16:13.526Z,74.90
2023-06-17T11:18:46.165Z,74.90
2023-06-17T11:21:15.187Z,74.90
2023-06-17T11:23:46.049Z,73.10
2023-06-17T11:26:14.540Z,70.50
2023-06-17T11:28:45.282Z,73.80
2023-06-17T11:31:13.159Z,75.60
2023-06-17T11:33:42.103Z,69.20
2023-06-17T11:36:14.311Z,68.00
2023-06-17T11:38:44.031Z,67.50
2023-06-17T11:41:11.859Z,70.90
2023-06-17T11:43:39.829Z,68.10
2023-06-17T11:46:07.719Z,67.60
2023-06-17T11:48:36.529Z,66.30
2023-06-17T11:51:04.539Z,64.30
2023-06-17T11:53:36.251Z,64.60
2023-06-17T11:56:09.128Z,61.40
2023-06-17T11:58:39.658Z,62.10
2023-06-17T12:01:09.447Z,62.90
2023-06-17T12:03:38.184Z,59.10
2023-06-17T12:06:06.481Z,57.40
2023-06-17T12:08:38.629Z,60.60
2023-06-17T12:11:08.671Z,58.60
2023-06-17T12:13:40.688Z,60.00
2023-06-17T12:16:12.402Z,57.50
2023-06-17T12:18:49.707Z,57.30
2023-06-17T12:21:19.585Z,62.90
2023-06-17T12:23:47.583Z,63.90
2023-06-17T12:26:16.622Z,61.80
2023-06-17T12:28:45.406Z,58.10
2023-06-17T12:31:13.996Z,57.30
2023-06-17T12:33:41.917Z,62.50
2023-06-17T12:36:09.678Z,57.60
2023-06-17T12:38:39.148Z,59.10
2023-06-17T12:41:08.166Z,59.60
2023-06-17T12:43:36.626Z,58.40
2023-06-17T12:46:05.717Z,57.30
2023-06-17T12:48:37.077Z,59.40
2023-06-17T12:51:05.356Z,57.70
2023-06-17T12:53:33.113Z,57.30
2023-06-17T12:56:01.004Z,58.90
2023-06-17T12:58:29.308Z,56.40
2023-06-17T13:00:57.594Z,56.50
2023-06-17T13:03:25.536Z,55.80
2023-06-17T13:05:53.707Z,57.10
2023-06-17T13:08:21.773Z,57.70
2023-06-17T13:10:49.488Z,58.60
2023-06-17T13:13:17.587Z,62.20
2023-06-17T13:15:45.356Z,58.20
2023-06-17T13:18:14.142Z,57.70
2023-06-17T13:20:42.088Z,59.30
2023-06-17T13:23:10.009Z,56.70
2023-06-17T13:25:37.843Z,57.50
2023-06-17T13:28:06.172Z,57.40
2023-06-17T13:30:34.503Z,56.20
2023-06-17T13:33:02.847Z,58.20
2023-06-17T13:35:30.650Z,58.00
2023-06-17T13:37:59.801Z,57.50
2023-06-17T13:40:27.628Z,54.70
2023-06-17T13:42:55.524Z,55.10
2023-06-17T13:45:23.494Z,57.80
2023-06-17T13:47:51.415Z,59.00
2023-06-17T13:50:19.391Z,55.80
2023-06-17T13:52:47.496Z,56.40
2023-06-17T13:55:15.306Z,57.00
2023-06-17T13:57:42.995Z,56.20
2023-06-17T14:00:11.824Z,54.70
2023-06-17T14:02:39.643Z,56.80
2023-06-17T14:05:07.820Z,55.90
2023-06-17T14:07:35.580Z,55.50
2023-06-17T14:10:03.472Z,56.40
2023-06-17T14:12:31.331Z,57.10
2023-06-17T14:14:59.074Z,54.00
2023-06-17T14:17:26.906Z,54.30
2023-06-17T14:19:54.732Z,53.30
2023-06-17T14:22:22.406Z,53.90
2023-06-17T14:24:50.184Z,53.00
2023-06-17T14:27:37.131Z,51.90
2023-06-17T14:30:06.480Z,51.80
2023-06-17T14:32:34.446Z,51.20
2023-06-17T14:35:02.313Z,50.80
2023-06-17T14:37:30.435Z,52.90
2023-06-17T14:39:58.555Z,52.60
2023-06-17T14:42:26.495Z,54.40
2023-06-17T14:44:54.327Z,54.20
2023-06-17T14:47:22.764Z,55.00
2023-06-17T14:49:50.593Z,54.30
2023-06-17T14:52:18.421Z,55.50
2023-06-17T14:54:46.502Z,56.40
2023-06-17T14:57:14.230Z,55.90
2023-06-17T14:59:42.284Z,54.30
2023-06-17T15:02:14.164Z,53.70
2023-06-17T15:04:44.937Z,54.90
2023-06-17T15:07:14.042Z,55.20
2023-06-17T15:09:42.248Z,55.40
2023-06-17T15:12:14.134Z,52.30
2023-06-17T15:14:42.113Z,53.50
2023-06-17T15:17:09.946Z,53.70
2023-06-17T15:19:37.701Z,52.10
2023-06-17T15:22:05.746Z,54.00
2023-06-17T15:24:33.632Z,54.80
2023-06-17T15:27:01.439Z,53.40
2023-06-17T15:29:29.224Z,55.90
2023-06-17T15:31:56.965Z,53.80
2023-06-17T15:34:24.767Z,52.10
2023-06-17T15:36:52.645Z,53.60
2023-06-17T15:39:26.538Z,54.20
2023-06-17T15:41:54.927Z,54.70
2023-06-17T15:44:23.757Z,56.20
2023-06-17T15:46:52.086Z,55.20
2023-06-17T15:49:19.966Z,55.40
2023-06-17T15:51:47.758Z,56.90
2023-06-17T15:54:15.806Z,53.20
2023-06-17T15:56:47.459Z,53.30
2023-06-17T15:59:15.643Z,53.10
2023-06-17T16:01:43.682Z,53.70
2023-06-17T16:04:33.629Z,55.70
2023-06-17T16:07:07.403Z,53.50
2023-06-17T16:09:36.469Z,53.90
2023-06-17T16:12:05.290Z,54.50
2023-06-17T16:14:34.035Z,53.50
2023-06-17T16:17:04.352Z,54.20
2023-06-17T16:19:33.283Z,55.80
2023-06-17T16:22:04.536Z,54.90
2023-06-17T16:24:32.534Z,54.60
2023-06-17T16:27:01.010Z,55.50
2023-06-17T16:29:28.935Z,55.50
2023-06-17T16:31:56.758Z,54.40
2023-06-17T16:34:24.650Z,55.70
2023-06-17T16:36:52.420Z,55.60
2023-06-17T16:39:20.411Z,55.70
2023-06-17T16:41:48.289Z,55.50
2023-06-17T16:44:16.140Z,56.50
2023-06-17T16:46:44.000Z,56.00
2023-06-17T16:49:11.815Z,56.60
2023-06-17T16:51:39.642Z,57.00
2023-06-17T16:54:08.287Z,59.80
2023-06-17T16:56:36.479Z,56.20
2023-06-17T16:59:04.256Z,55.70
2023-06-17T17:01:32.263Z,54.80
2023-06-17T17:04:01.640Z,54.50
2023-06-17T17:06:29.534Z,54.40
2023-06-17T17:08:57.263Z,54.50
2023-06-17T17:11:25.064Z,55.40
2023-06-17T17:13:52.926Z,55.20
2023-06-17T17:16:20.748Z,55.60
2023-06-17T17:18:48.560Z,54.20
2023-06-17T17:21:16.394Z,52.10
2023-06-17T17:23:45.695Z,52.60
2023-06-17T17:26:13.897Z,53.50
2023-06-17T17:28:42.998Z,52.00
2023-06-17T17:31:10.852Z,52.80
2023-06-17T17:33:39.002Z,52.30
2023-06-17T17:36:07.176Z,52.70
2023-06-17T17:38:35.002Z,52.40
2023-06-17T17:41:02.798Z,54.20
2023-06-17T17:43:31.258Z,54.50
2023-06-17T17:45:59.468Z,54.90
2023-06-17T17:48:27.376Z,55.40
2023-06-17T17:50:55.216Z,56.40
2023-06-17T17:53:23.234Z,54.10
2023-06-17T17:55:51.116Z,58.20
2023-06-17T17:58:18.858Z,59.30
2023-06-17T18:00:47.020Z,60.50
2023-06-17T18:03:14.944Z,61.50
2023-06-17T18:05:42.940Z,62.70
2023-06-17T18:08:10.692Z,62.50
2023-06-17T18:10:38.590Z,63.20
2023-06-17T18:13:06.371Z,64.10
2023-06-17T18:15:34.143Z,64.20
2023-06-17T18:18:01.934Z,64.60
2023-06-17T18:20:29.760Z,65.20
2023-06-17T18:22:57.718Z,65.60
2023-06-17T18:25:25.906Z,66.00
2023-06-17T18:27:53.656Z,64.80
2023-06-17T18:30:21.728Z,66.70
2023-06-17T18:32:49.760Z,67.80
2023-06-17T18:35:17.531Z,67.60
2023-06-17T18:37:45.483Z,69.70
2023-06-17T18:40:13.503Z,69.60
2023-06-17T18:42:41.214Z,69.50
2023-06-17T18:45:10.417Z,70.90
2023-06-17T18:47:38.422Z,71.20
2023-06-17T18:50:07.504Z,71.70
2023-06-17T18:52:35.350Z,71.40
2023-06-17T18:55:03.128Z,72.90
2023-06-17T18:57:31.287Z,73.30
2023-06-17T18:59:59.043Z,73.50
2023-06-17T19:02:28.354Z,75.20
2023-06-17T19:04:57.222Z,75.50
2023-06-17T19:07:25.044Z,76.20
2023-06-17T19:09:52.864Z,79.00
2023-06-17T19:12:20.627Z,78.20
2023-06-17T19:14:48.369Z,81.30
2023-06-17T19:17:16.230Z,84.80
2023-06-17T19:19:43.986Z,85.90
2023-06-17T19:22:11.750Z,86.30
2023-06-17T19:24:39.573Z,87.20
2023-06-17T19:27:07.417Z,89.10
2023-06-17T19:29:38.243Z,90.20
2023-06-17T19:32:06.706Z,90.60
2023-06-17T19:34:34.496Z,91.00
2023-06-17T19:37:02.367Z,91.80
2023-06-17T19:39:30.297Z,92.10
2023-06-17T19:41:58.009Z,92.60
2023-06-17T19:44:25.853Z,92.90
2023-06-17T19:46:53.618Z,93.10
2023-06-17T19:49:21.552Z,93.50
2023-06-17T19:51:49.367Z,93.40
2023-06-17T19:54:19.546Z,94.00
2023-06-17T19:56:48.527Z,94.50
2023-06-17T19:59:16.430Z,94.50
2023-06-17T20:01:44.269Z,92.80
2023-06-17T20:04:12.217Z,92.40
2023-06-17T20:06:40.135Z,93.20
2023-06-17T20:09:09.039Z,93.50
2023-06-17T20:11:36.956Z,93.40
2023-06-17T20:14:04.694Z,93.50
2023-06-17T20:16:32.562Z,93.60
2023-06-17T20:19:00.397Z,93.30
2023-06-17T20:21:28.206Z,93.30
2023-06-17T20:23:55.970Z,93.70
2023-06-17T20:26:24.078Z,94.00
2023-06-17T20:28:51.722Z,93.70
2023-06-17T20:31:19.520Z,93.60
2023-06-17T20:33:48.358Z,93.50
2023-06-17T20:36:16.237Z,94.00
2023-06-17T20:38:44.007Z,94.20
2023-06-17T20:41:12.213Z,94.40
2023-06-17T20:43:39.940Z,94.70
2023-06-17T20:46:07.883Z,94.60
2023-06-17T20:48:35.672Z,94.40
2023-06-17T20:51:05.514Z,95.10
2023-06-17T20:53:33.340Z,95.10
2023-06-17T20:56:01.224Z,94.80
2023-06-17T20:58:29.006Z,95.10
2023-06-17T21:00:56.833Z,95.40
2023-06-17T21:03:24.677Z,95.70
2023-06-17T21:05:52.380Z,96.00
2023-06-17T21:08:20.324Z,95.50
2023-06-17T21:10:48.469Z,95.70
2023-06-17T21:13:16.190Z,94.90
2023-06-17T21:15:44.084Z,95.10
2023-06-17T21:18:11.937Z,93.90
2023-06-17T21:20:39.680Z,93.80
2023-06-17T21:23:07.398Z,93.00
2023-06-17T21:25:35.141Z,92.60
2023-06-17T21:28:02.969Z,92.80
2023-06-17T21:30:30.799Z,92.90
2023-06-17T21:32:58.692Z,92.80
2023-06-17T21:35:26.548Z,93.20
2023-06-17T21:37:54.267Z,92.70
2023-06-17T21:40:22.438Z,93.20
2023-06-17T21:42:50.438Z,93.10
2023-06-17T21:45:18.197Z,93.20
2023-06-17T21:47:46.041Z,94.90
2023-06-17T21:50:13.817Z,96.30
2023-06-17T21:52:41.799Z,97.20
2023-06-17T21:55:09.944Z,96.70
2023-06-17T21:57:37.652Z,97.20
2023-06-17T22:00:07.135Z,96.90
2023-06-17T22:02:40.118Z,97.80
2023-06-17T22:05:08.682Z,97.40
2023-06-17T22:07:36.567Z,97.80
2023-06-17T22:10:04.836Z,97.80
2023-06-17T22:12:32.649Z,97.90
2023-06-17T22:15:03.423Z,98.20
2023-06-17T22:17:31.824Z,99.00
2023-06-17T22:19:59.631Z,99.60
2023-06-17T22:22:27.339Z,99.00
2023-06-17T22:24:55.061Z,98.70
2023-06-17T22:27:22.909Z,98.40
2023-06-17T22:29:50.747Z,98.70
2023-06-17T22:32:18.748Z,99.10
2023-06-17T22:34:46.493Z,98.40
2023-06-17T22:37:14.979Z,98.20
2023-06-17T22:39:43.071Z,98.70
2023-06-17T22:42:10.876Z,98.40
2023-06-17T22:44:38.591Z,98.10
2023-06-17T22:47:06.547Z,98.60
2023-06-17T22:49:34.446Z,99.10
2023-06-17T22:52:02.192Z,99.30
2023-06-17T22:54:32.555Z,99.50
2023-06-17T22:57:00.346Z,99.30
2023-06-17T22:59:28.099Z,99.90
2023-06-17T23:01:55.928Z,99.90
2023-06-17T23:04:23.873Z,99.90
2023-06-17T23:06:51.766Z,99.90
2023-06-17T23:09:19.532Z,99.90
2023-06-17T23:11:47.283Z,99.90
2023-06-17T23:14:15.000Z,99.90
2023-06-17T23:16:42.776Z,99.90
2023-06-17T23:19:10.654Z,99.90
2023-06-17T23:21:40.923Z,99.90
2023-06-17T23:24:09.087Z,99.90
2023-06-17T23:26:36.860Z,99.90
2023-06-17T23:29:04.595Z,99.90
2023-06-17T23:31:32.457Z,99.90
2023-06-17T23:34:00.310Z,99.90
2023-06-17T23:36:28.043Z,99.90
2023-06-17T23:38:56.652Z,99.90
2023-06-17T23:41:24.719Z,99.90
2023-06-17T23:43:52.434Z,99.90
2023-06-17T23:46:20.107Z,99.90
2023-06-17T23:48:48.034Z,99.90
2023-06-17T23:51:16.010Z,99.90
2023-06-17T23:53:43.919Z,99.90
2023-06-17T23:56:12.225Z,99.90
2023-06-17T23:58:40.271Z,99.90
